Time;durP1;ratioP1;P1;durP2;ratioP2;P2;SDS_P1;SDS_P2;PMS_P1;PMS_P2;Temp;Humidity;BMP_temperature;BMP_pressure;BME280_temperature;BME280_humidity;BME280_pressure;Samples;Min_cycle;Max_cycle;Signal;HPM_P1;HPM_P2
2022/09/20 00:00:49;;;;;;;10.05;3.50;;;11.40;99.90;;;;;;2094429;28;20021;-72
2022/09/20 00:01:50;;;;;;;7.00;3.63;;;11.40;99.90;;;;;;2095173;28;20027;-72
2022/09/20 00:02:51;;;;;;;9.10;3.67;;;11.40;99.90;;;;;;2091488;28;20059;-72
2022/09/20 00:03:55;;;;;;;4.25;2.70;;;11.40;99.90;;;;;;2092096;28;20028;-72
2022/09/20 00:04:55;;;;;;;10.85;3.08;;;11.40;99.90;;;;;;2092180;28;20116;-72
2022/09/20 00:06:00;;;;;;;6.10;2.90;;;11.40;99.90;;;;;;2093159;28;20036;-72
2022/09/20 00:07:00;;;;;;;4.78;2.53;;;11.40;99.90;;;;;;2093256;28;20083;-72
2022/09/20 00:08:06;;;;;;;7.10;3.20;;;11.30;99.90;;;;;;2100243;28;20069;-72
2022/09/20 00:09:07;;;;;;;4.53;3.00;;;11.40;99.90;;;;;;2100405;28;20431;-72
2022/09/20 00:10:07;;;;;;;11.20;3.38;;;11.30;99.90;;;;;;2099989;28;20032;-72
2022/09/20 00:11:14;;;;;;;4.60;2.53;;;11.30;99.90;;;;;;2092417;28;20036;-72
2022/09/20 00:12:15;;;;;;;7.85;2.88;;;11.30;99.90;;;;;;2092947;28;20583;-72
2022/09/20 00:13:15;;;;;;;5.72;2.90;;;11.30;99.90;;;;;;2093632;28;20091;-72
2022/09/20 00:14:16;;;;;;;5.78;2.80;;;11.30;99.90;;;;;;2093468;28;20025;-72
2022/09/20 00:15:17;;;;;;;6.18;3.40;;;11.30;99.90;;;;;;2092242;28;20037;-72
2022/09/20 00:16:21;;;;;;;6.35;3.08;;;11.30;99.90;;;;;;2099918;28;20047;-72
2022/09/20 00:17:22;;;;;;;10.35;3.80;;;11.30;99.90;;;;;;2100363;28;20028;-72
2022/09/20 00:18:23;;;;;;;7.20;2.65;;;11.30;99.90;;;;;;2090886;28;20474;-72
2022/09/20 00:19:24;;;;;;;10.30;3.30;;;11.30;99.90;;;;;;2092864;28;20115;-72
2022/09/20 00:20:25;;;;;;;6.90;2.45;;;11.30;99.90;;;;;;2093732;28;20056;-72
2022/09/20 00:21:28;;;;;;;9.52;2.97;;;11.30;99.90;;;;;;2091080;28;20027;-72
2022/09/20 00:22:29;;;;;;;6.50;3.25;;;11.30;99.90;;;;;;2094257;28;20029;-72
2022/09/20 00:23:30;;;;;;;6.53;2.92;;;11.30;99.90;;;;;;2092369;28;20540;-72
2022/09/20 00:24:31;;;;;;;7.22;3.05;;;11.30;99.90;;;;;;2093369;28;20604;-72
2022/09/20 00:25:32;;;;;;;6.57;3.13;;;11.30;99.90;;;;;;2093592;28;20479;-72
2022/09/20 00:26:32;;;;;;;8.13;2.92;;;11.30;99.90;;;;;;2092613;28;20095;-72
2022/09/20 00:27:33;;;;;;;5.75;2.97;;;11.30;99.90;;;;;;2094062;28;20111;-72
2022/09/20 00:28:33;;;;;;;9.45;3.20;;;11.30;99.90;;;;;;2094262;28;20017;-72
2022/09/20 00:29:34;;;;;;;6.45;3.00;;;11.30;99.90;;;;;;2094366;28;20621;-72
2022/09/20 00:30:35;;;;;;;11.18;3.47;;;11.30;99.90;;;;;;2090943;28;20056;-72
2022/09/20 00:31:38;;;;;;;6.22;3.30;;;11.30;99.90;;;;;;2093071;28;20024;-72
2022/09/20 00:32:40;;;;;;;10.73;3.50;;;11.30;99.90;;;;;;2093697;28;20028;-72
2022/09/20 00:35:12;;;;;;;9.07;3.03;;;11.30;99.90;;;;;;2091823;28;20028;-72
2022/09/20 00:36:13;;;;;;;10.27;3.40;;;11.30;99.90;;;;;;2094147;28;20036;-72
2022/09/20 00:37:13;;;;;;;7.88;3.78;;;11.30;99.90;;;;;;2093649;28;20056;-72
2022/09/20 00:38:15;;;;;;;8.48;3.42;;;11.30;99.90;;;;;;2092798;28;20025;-72
2022/09/20 00:39:16;;;;;;;5.63;2.83;;;11.30;99.90;;;;;;2092756;28;20027;-72
2022/09/20 00:40:19;;;;;;;6.97;2.95;;;11.30;99.90;;;;;;2092033;28;20124;-72
2022/09/20 00:41:19;;;;;;;7.65;3.15;;;11.30;99.90;;;;;;2091539;28;20027;-72
2022/09/20 00:42:26;;;;;;;6.93;3.15;;;11.30;99.90;;;;;;2092182;28;20035;-72
2022/09/20 00:43:39;;;;;;;6.47;2.97;;;11.30;99.90;;;;;;2092471;28;20467;-72
2022/09/20 00:44:55;;;;;;;8.65;3.63;;;11.40;99.90;;;;;;2092441;28;20505;-72
2022/09/20 00:45:56;;;;;;;8.63;3.08;;;11.30;99.90;;;;;;2092047;28;20045;-72
2022/09/20 00:46:58;;;;;;;7.47;3.17;;;11.30;99.90;;;;;;2098930;28;20040;-72
2022/09/20 00:48:13;;;;;;;4.78;3.10;;;11.40;99.90;;;;;;2099824;28;20038;-72
2022/09/20 00:49:22;;;;;;;5.95;3.30;;;11.30;99.90;;;;;;2091122;28;20029;-72
2022/09/20 00:50:29;;;;;;;5.13;2.83;;;11.30;99.90;;;;;;2090728;28;20044;-72
2022/09/20 00:51:35;;;;;;;6.07;3.38;;;11.40;99.90;;;;;;2094219;28;20105;-72
2022/09/20 00:52:36;;;;;;;7.80;3.70;;;11.30;99.90;;;;;;2092458;28;20475;-72
2022/09/20 00:53:42;;;;;;;6.63;2.83;;;11.40;99.90;;;;;;2093309;28;20036;-72
2022/09/20 00:54:42;;;;;;;11.77;4.28;;;11.40;99.90;;;;;;2092566;28;20029;-72
2022/09/20 00:55:49;;;;;;;10.32;3.63;;;11.40;99.90;;;;;;2092446;28;20067;-72
2022/09/20 00:56:51;;;;;;;10.93;4.03;;;11.40;99.90;;;;;;2090603;28;20436;-72
2022/09/20 00:57:52;;;;;;;7.10;3.30;;;11.30;99.90;;;;;;2093659;28;20055;-72
2022/09/20 00:59:17;;;;;;;7.78;3.30;;;11.40;99.90;;;;;;2092974;28;20582;-72
2022/09/20 01:00:18;;;;;;;9.10;3.40;;;11.40;99.90;;;;;;2092238;28;20029;-72
2022/09/20 01:01:19;;;;;;;8.88;3.97;;;11.40;99.90;;;;;;2094808;28;20119;-72
2022/09/20 01:02:24;;;;;;;11.18;4.15;;;11.40;99.90;;;;;;2087461;28;20025;-71
2022/09/20 01:03:30;;;;;;;12.02;4.10;;;11.40;99.90;;;;;;2083529;28;20397;-71
2022/09/20 01:04:33;;;;;;;6.55;2.97;;;11.40;99.90;;;;;;2091756;28;20017;-71
2022/09/20 01:05:36;;;;;;;9.77;3.90;;;11.40;99.90;;;;;;2092126;28;20035;-71
2022/09/20 01:06:37;;;;;;;7.75;3.25;;;11.30;99.90;;;;;;2091987;28;20029;-71
2022/09/20 01:07:37;;;;;;;7.60;3.45;;;11.40;99.90;;;;;;2092625;28;20031;-72
2022/09/20 01:08:41;;;;;;;9.73;3.72;;;11.30;99.90;;;;;;2090804;28;20459;-71
2022/09/20 01:09:42;;;;;;;9.00;4.05;;;11.30;99.90;;;;;;2094244;28;20055;-72
2022/09/20 01:10:43;;;;;;;9.50;3.60;;;11.40;99.90;;;;;;2094195;28;20025;-71
2022/09/20 01:11:44;;;;;;;7.25;3.78;;;11.40;99.90;;;;;;2091328;28;20517;-72
2022/09/20 01:12:46;;;;;;;6.90;3.40;;;11.30;99.90;;;;;;2091183;28;20056;-71
2022/09/20 01:13:47;;;;;;;11.23;4.00;;;11.30;99.90;;;;;;2091803;28;20033;-71
2022/09/20 01:14:50;;;;;;;7.38;3.50;;;11.30;99.90;;;;;;2094000;28;20052;-71
2022/09/20 01:15:51;;;;;;;11.88;4.75;;;11.30;99.90;;;;;;2092196;28;20036;-71
2022/09/20 01:16:53;;;;;;;8.23;3.55;;;11.30;99.90;;;;;;2091897;28;20531;-72
2022/09/20 01:17:56;;;;;;;7.78;4.05;;;11.30;99.90;;;;;;2091809;28;20036;-72
2022/09/20 01:19:03;;;;;;;7.85;3.03;;;11.30;99.90;;;;;;2091114;28;20033;-71
2022/09/20 01:20:23;;;;;;;7.60;3.55;;;11.30;99.90;;;;;;2091825;28;20025;-71
2022/09/20 01:21:26;;;;;;;9.70;4.22;;;11.30;99.90;;;;;;2093057;28;20013;-72
2022/09/20 01:22:39;;;;;;;9.80;3.72;;;11.30;99.90;;;;;;2092171;28;20058;-71
2022/09/20 01:23:59;;;;;;;9.30;3.58;;;11.20;99.90;;;;;;2092210;28;20020;-71
2022/09/20 01:25:16;;;;;;;12.27;4.40;;;11.30;99.90;;;;;;2092251;28;20052;-71
2022/09/20 01:26:29;;;;;;;8.35;3.30;;;11.20;99.90;;;;;;2100052;28;20028;-72
2022/09/20 01:27:41;;;;;;;6.63;3.38;;;11.20;99.90;;;;;;2098261;28;20016;-72
2022/09/20 01:28:47;;;;;;;11.60;4.15;;;11.20;99.90;;;;;;2093101;28;20469;-72
2022/09/20 01:30:18;;;;;;;7.25;3.85;;;11.20;99.90;;;;;;2093839;28;20059;-72
2022/09/20 01:31:30;;;;;;;8.35;4.00;;;11.20;99.90;;;;;;2091864;28;21962;-71
2022/09/20 01:32:49;;;;;;;7.38;3.75;;;11.20;99.90;;;;;;2091489;28;20024;-71
2022/09/20 01:34:00;;;;;;;6.05;3.22;;;11.20;99.90;;;;;;2091255;28;20107;-72
2022/09/20 01:35:02;;;;;;;5.47;3.35;;;11.10;99.90;;;;;;2095150;28;20085;-71
2022/09/20 01:36:05;;;;;;;7.50;3.22;;;11.10;99.90;;;;;;2092080;28;20013;-71
2022/09/20 01:37:22;;;;;;;9.13;3.65;;;11.10;99.90;;;;;;2091270;28;20029;-71
2022/09/20 01:38:33;;;;;;;6.50;3.67;;;11.10;99.90;;;;;;2091691;28;20145;-71
2022/09/20 01:40:15;;;;;;;7.03;3.20;;;11.10;99.90;;;;;;2091207;28;20029;-71
2022/09/20 01:41:25;;;;;;;8.25;3.88;;;11.10;99.90;;;;;;2091138;28;20029;-72
2022/09/20 01:42:34;;;;;;;4.10;2.80;;;11.00;99.90;;;;;;2091631;28;20024;-71
2022/09/20 01:43:52;;;;;;;5.75;3.60;;;11.00;99.90;;;;;;2092706;28;20040;-71
2022/09/20 01:45:13;;;;;;;7.65;3.38;;;11.00;99.90;;;;;;2094452;28;20028;-71
2022/09/20 01:46:26;;;;;;;8.95;4.00;;;11.00;99.90;;;;;;2089985;28;20635;-71
2022/09/20 01:47:53;;;;;;;8.48;3.65;;;11.00;99.90;;;;;;2091195;28;20108;-71
2022/09/20 01:49:05;;;;;;;7.28;3.67;;;10.90;99.90;;;;;;2091350;28;20511;-72
2022/09/20 01:50:14;;;;;;;8.20;3.90;;;10.90;99.90;;;;;;2093479;28;20032;-71
2022/09/20 01:51:47;;;;;;;7.28;3.67;;;10.90;99.90;;;;;;2091788;28;20383;-72
2022/09/20 01:53:19;;;;;;;4.45;3.28;;;10.90;99.90;;;;;;2093367;28;20040;-71
2022/09/20 01:55:00;;;;;;;6.43;3.20;;;10.90;99.90;;;;;;2091844;28;20411;-71
2022/09/20 01:56:03;;;;;;;7.28;3.00;;;10.80;99.90;;;;;;2091135;28;20127;-72
2022/09/20 01:57:35;;;;;;;6.85;3.40;;;10.80;99.90;;;;;;2091895;28;20033;-72
2022/09/20 01:58:59;;;;;;;7.78;3.75;;;10.80;99.90;;;;;;2092555;28;20052;-71
2022/09/20 02:00:14;;;;;;;7.05;3.40;;;10.80;99.90;;;;;;2091522;28;20033;-71
2022/09/20 02:01:46;;;;;;;6.30;3.45;;;10.80;99.90;;;;;;2093064;28;20020;-72
2022/09/20 02:03:11;;;;;;;6.82;3.20;;;10.80;99.90;;;;;;2082973;28;20120;-71
2022/09/20 02:04:39;;;;;;;7.25;3.50;;;10.80;99.90;;;;;;2093724;28;20028;-71
2022/09/20 02:05:59;;;;;;;5.20;3.60;;;10.80;99.90;;;;;;2091948;28;20027;-71
2022/09/20 02:07:12;;;;;;;7.05;3.60;;;10.80;99.90;;;;;;2091198;28;20037;-71
2022/09/20 02:08:31;;;;;;;7.10;3.50;;;10.70;99.90;;;;;;2092757;28;20056;-71
2022/09/20 02:09:38;;;;;;;8.30;3.60;;;10.70;99.90;;;;;;2093292;28;20032;-71
2022/09/20 02:11:05;;;;;;;8.00;3.70;;;10.80;99.90;;;;;;2093308;28;20052;-71
2022/09/20 02:12:20;;;;;;;6.50;3.30;;;10.70;99.90;;;;;;2084766;28;20033;-71
2022/09/20 02:13:33;;;;;;;7.55;3.58;;;10.70;99.90;;;;;;2092139;28;20524;-71
2022/09/20 02:15:06;;;;;;;10.50;4.28;;;10.70;99.90;;;;;;2093182;28;20037;-71
2022/09/20 02:16:44;;;;;;;9.80;4.22;;;10.70;99.90;;;;;;2089818;28;20373;-71
2022/09/20 02:18:00;;;;;;;8.68;3.53;;;10.70;99.90;;;;;;2092754;28;20159;-72
2022/09/20 02:19:19;;;;;;;7.20;3.60;;;10.70;99.90;;;;;;2094552;28;20024;-72
2022/09/20 02:20:38;;;;;;;5.18;3.33;;;10.70;99.90;;;;;;2091450;28;20033;-72
2022/09/20 02:22:10;;;;;;;6.32;3.47;;;10.70;99.90;;;;;;2092945;28;20074;-71
2022/09/20 02:23:14;;;;;;;8.48;3.42;;;10.70;99.90;;;;;;2092748;28;20036;-71
2022/09/20 02:24:23;;;;;;;3.85;3.00;;;10.60;99.90;;;;;;2093831;28;20033;-71
2022/09/20 02:25:57;;;;;;;5.60;3.70;;;10.70;99.90;;;;;;2093467;28;20044;-71
2022/09/20 02:27:19;;;;;;;6.43;3.38;;;10.70;99.90;;;;;;2093250;28;20504;-71
2022/09/20 02:28:22;;;;;;;7.03;2.90;;;10.70;99.90;;;;;;2094049;28;20806;-71
2022/09/20 02:29:45;;;;;;;5.65;2.80;;;10.70;99.90;;;;;;2094722;28;20101;-71
2022/09/20 02:30:57;;;;;;;6.72;3.47;;;10.70;99.90;;;;;;2092732;28;20013;-71
2022/09/20 02:32:23;;;;;;;7.45;4.43;;;10.70;99.90;;;;;;2091633;28;20059;-71
2022/09/20 02:34:07;;;;;;;5.93;3.00;;;10.60;99.90;;;;;;2093758;28;20044;-72
2022/09/20 02:35:39;;;;;;;4.95;2.83;;;10.60;99.90;;;;;;2093712;28;20025;-72
2022/09/20 02:37:08;;;;;;;4.63;3.35;;;10.60;99.90;;;;;;2092748;28;20033;-71
2022/09/20 02:38:24;;;;;;;5.80;3.25;;;10.60;99.90;;;;;;2091394;28;20472;-71
2022/09/20 02:39:44;;;;;;;6.97;3.45;;;10.60;99.90;;;;;;2092690;28;20025;-72
2022/09/20 02:41:02;;;;;;;5.07;3.83;;;10.60;99.90;;;;;;2093556;28;20973;-71
2022/09/20 02:42:09;;;;;;;6.35;4.10;;;10.60;99.90;;;;;;2092376;28;20032;-71
2022/09/20 02:43:24;;;;;;;10.63;3.40;;;10.60;99.90;;;;;;2092464;28;20023;-71
2022/09/20 02:44:43;;;;;;;7.10;3.90;;;10.60;99.90;;;;;;2093969;28;20805;-71
2022/09/20 02:45:57;;;;;;;8.13;3.70;;;10.60;99.90;;;;;;2093871;28;20123;-71
2022/09/20 02:47:19;;;;;;;4.40;2.97;;;10.60;99.90;;;;;;2094321;28;20036;-71
2022/09/20 02:48:26;;;;;;;7.25;3.53;;;10.60;99.90;;;;;;2094396;28;20020;-71
2022/09/20 02:49:42;;;;;;;7.80;3.47;;;10.60;99.90;;;;;;2092628;28;20032;-71
2022/09/20 02:51:01;;;;;;;8.10;3.58;;;10.60;99.90;;;;;;2092199;28;20024;-71
2022/09/20 02:52:33;;;;;;;5.13;3.13;;;10.60;99.90;;;;;;2094577;28;20114;-71
2022/09/20 02:54:17;;;;;;;5.55;3.40;;;10.60;99.90;;;;;;2091783;28;20053;-71
2022/09/20 02:55:24;;;;;;;6.45;3.80;;;10.50;99.90;;;;;;2091922;28;20041;-71
2022/09/20 02:56:51;;;;;;;5.78;3.38;;;10.50;99.90;;;;;;2092342;28;20035;-72
2022/09/20 02:58:27;;;;;;;7.50;4.35;;;10.50;99.90;;;;;;2091769;28;20017;-71
2022/09/20 03:00:03;;;;;;;5.13;3.60;;;10.50;99.90;;;;;;2102773;28;20023;-71
2022/09/20 03:01:29;;;;;;;7.72;3.75;;;10.50;99.90;;;;;;2094550;28;20021;-71
2022/09/20 03:02:36;;;;;;;4.65;3.40;;;10.50;99.90;;;;;;2093368;28;20013;-71
2022/09/20 03:03:56;;;;;;;4.93;3.50;;;10.50;99.90;;;;;;2092274;28;20021;-71
2022/09/20 03:05:28;;;;;;;5.60;3.53;;;10.50;99.90;;;;;;2092660;28;20031;-71
2022/09/20 03:06:50;;;;;;;6.93;3.53;;;10.50;99.90;;;;;;2093111;28;20392;-71
2022/09/20 03:08:10;;;;;;;9.75;4.28;;;10.40;99.90;;;;;;2093549;28;20040;-71
2022/09/20 03:09:30;;;;;;;7.75;3.38;;;10.40;99.90;;;;;;2094192;28;20024;-71
2022/09/20 03:10:43;;;;;;;6.63;4.13;;;10.40;99.90;;;;;;2095023;28;20025;-71
2022/09/20 03:11:43;;;;;;;6.70;3.47;;;10.40;99.90;;;;;;2092606;28;20139;-71
2022/09/20 03:13:25;;;;;;;6.22;3.42;;;10.40;99.90;;;;;;2092639;28;20024;-71
2022/09/20 03:14:32;;;;;;;6.80;4.00;;;10.40;99.90;;;;;;2083396;28;20104;-71
2022/09/20 03:15:44;;;;;;;9.40;3.75;;;10.40;99.90;;;;;;2085188;28;20024;-71
2022/09/20 03:17:04;;;;;;;6.78;3.58;;;10.40;99.90;;;;;;2087560;28;20045;-72
2022/09/20 03:18:14;;;;;;;6.53;4.27;;;10.40;99.90;;;;;;2093705;28;20388;-71
2022/09/20 03:19:14;;;;;;;;;;;10.40;99.90;;;;;;2093316;28;20251;-72
2022/09/20 03:20:44;;;;;;;4.95;3.05;;;10.30;99.90;;;;;;2091415;28;20015;-71
2022/09/20 03:21:53;;;;;;;6.95;3.85;;;10.30;99.90;;;;;;2084745;28;20040;-71
2022/09/20 03:22:57;;;;;;;6.30;3.90;;;10.30;99.90;;;;;;2092910;28;20089;-71
2022/09/20 03:23:58;;;;;;;9.65;4.53;;;10.30;99.90;;;;;;2093729;28;20702;-71
2022/09/20 03:25:20;;;;;;;6.10;3.55;;;10.30;99.90;;;;;;2093416;28;20085;-71
2022/09/20 03:26:35;;;;;;;6.97;3.65;;;10.30;99.90;;;;;;2093806;28;20393;-72
2022/09/20 03:27:46;;;;;;;6.60;3.55;;;10.30;99.90;;;;;;2091333;28;20611;-71
2022/09/20 03:29:07;;;;;;;7.88;4.10;;;10.30;99.90;;;;;;2090373;28;20025;-71
2022/09/20 03:30:27;;;;;;;8.70;3.63;;;10.30;99.90;;;;;;2091849;28;20605;-71
2022/09/20 03:31:33;;;;;;;5.13;3.90;;;10.30;99.90;;;;;;2094027;28;20016;-71
2022/09/20 03:33:00;;;;;;;6.53;3.40;;;10.30;99.90;;;;;;2093072;28;20418;-71
2022/09/20 03:34:29;;;;;;;6.93;3.30;;;10.30;99.90;;;;;;2092596;28;20653;-71
2022/09/20 03:35:49;;;;;;;9.05;4.30;;;10.20;99.90;;;;;;2093136;28;20104;-72
2022/09/20 03:37:18;;;;;;;7.97;4.18;;;10.20;99.90;;;;;;2093172;28;20509;-71
2022/09/20 03:38:38;;;;;;;6.60;3.80;;;10.20;99.90;;;;;;2093613;28;22222;-71
2022/09/20 03:40:00;;;;;;;6.22;3.58;;;10.20;99.90;;;;;;2091138;28;20104;-71
2022/09/20 03:41:12;;;;;;;5.40;3.70;;;10.20;99.90;;;;;;2094496;28;20060;-71
2022/09/20 03:42:18;;;;;;;6.05;4.20;;;10.20;99.90;;;;;;2090944;28;20057;-71
2022/09/20 03:43:48;;;;;;;6.22;3.72;;;10.20;99.90;;;;;;2092895;28;20135;-71
2022/09/20 03:44:56;;;;;;;;;;;10.10;99.90;;;;;;2084205;28;20042;-71
2022/09/20 03:46:17;;;;;;;7.28;3.80;;;10.10;99.90;;;;;;2091900;28;19919;-71
2022/09/20 03:47:39;;;;;;;8.63;4.25;;;10.10;99.90;;;;;;2092447;28;20027;-71
2022/09/20 03:49:16;;;;;;;8.15;3.88;;;10.10;99.90;;;;;;2092440;28;20032;-72
2022/09/20 03:50:31;;;;;;;5.55;3.90;;;10.10;99.90;;;;;;2094783;28;20419;-71
2022/09/20 03:52:05;;;;;;;6.15;3.63;;;10.10;99.90;;;;;;2094579;28;20474;-71
2022/09/20 03:53:26;;;;;;;8.05;4.10;;;10.10;99.90;;;;;;2092318;28;20053;-71
2022/09/20 03:54:45;;;;;;;5.60;3.65;;;10.10;99.90;;;;;;2094072;28;20117;-71
2022/09/20 03:55:48;;;;;;;4.82;3.80;;;10.10;99.90;;;;;;2100905;28;20878;-71
2022/09/20 03:57:19;;;;;;;6.45;4.15;;;10.00;99.90;;;;;;2099241;28;20140;-71
2022/09/20 03:58:44;;;;;;;5.50;4.20;;;10.00;99.90;;;;;;2095928;28;20051;-71
2022/09/20 04:00:22;;;;;;;7.57;3.90;;;10.00;99.90;;;;;;2093432;28;20032;-72
2022/09/20 04:02:02;;;;;;;5.65;4.03;;;10.00;99.90;;;;;;2088095;28;20024;-71
2022/09/20 04:03:19;;;;;;;6.80;4.00;;;10.00;99.90;;;;;;2092418;28;20030;-72
2022/09/20 04:04:54;;;;;;;4.95;3.70;;;10.00;99.90;;;;;;2093432;28;20555;-72
2022/09/20 04:06:28;;;;;;;5.75;3.60;;;10.00;99.90;;;;;;2092828;28;20043;-71
2022/09/20 04:08:05;;;;;;;5.43;3.70;;;10.00;99.90;;;;;;2093625;28;20024;-71
2022/09/20 04:09:42;;;;;;;6.40;3.63;;;9.90;99.90;;;;;;2092472;28;20884;-71
2022/09/20 04:11:07;;;;;;;6.95;3.35;;;9.90;99.90;;;;;;2092784;28;20040;-72
2022/09/20 04:12:19;;;;;;;5.85;3.45;;;9.90;99.90;;;;;;2093622;28;20085;-72
2022/09/20 04:13:30;;;;;;;6.00;4.10;;;9.90;99.90;;;;;;2092998;28;20021;-71
2022/09/20 04:15:11;;;;;;;7.72;3.92;;;9.90;99.90;;;;;;2091948;28;20035;-71
2022/09/20 04:16:33;;;;;;;7.90;4.70;;;9.90;99.90;;;;;;2090464;28;20017;-72
2022/09/20 04:17:57;;;;;;;10.20;4.32;;;9.90;99.90;;;;;;2092662;28;20365;-71
2022/09/20 04:19:13;;;;;;;7.80;4.47;;;9.90;99.90;;;;;;2093847;28;20056;-71
2022/09/20 04:20:46;;;;;;;6.43;4.20;;;9.90;99.90;;;;;;2094341;28;20024;-72
2022/09/20 04:22:00;;;;;;;6.93;4.03;;;9.90;99.90;;;;;;2092216;28;20079;-71
2022/09/20 04:23:13;;;;;;;8.55;3.72;;;9.90;99.90;;;;;;2090263;28;20070;-71
2022/09/20 04:24:22;;;;;;;5.95;4.50;;;9.90;99.90;;;;;;2091265;28;20017;-71
2022/09/20 04:25:35;;;;;;;5.03;4.28;;;9.90;99.90;;;;;;2092918;28;20020;-72
2022/09/20 04:26:41;;;;;;;8.23;4.55;;;9.90;99.90;;;;;;2091526;28;20016;-71
2022/09/20 04:27:47;;;;;;;6.30;4.00;;;9.90;99.90;;;;;;2092024;28;20016;-71
2022/09/20 04:29:15;;;;;;;7.93;4.32;;;10.00;99.90;;;;;;2092091;28;20025;-71
2022/09/20 04:30:29;;;;;;;6.60;4.60;;;10.00;99.90;;;;;;2093541;28;20052;-71
2022/09/20 04:31:49;;;;;;;5.90;4.13;;;10.00;99.90;;;;;;2093315;28;20034;-71
2022/09/20 04:33:07;;;;;;;8.00;3.92;;;10.00;99.90;;;;;;2092066;28;20143;-71
2022/09/20 04:34:17;;;;;;;4.85;4.07;;;10.00;99.90;;;;;;2092954;28;20032;-71
2022/09/20 04:37:31;;;;;;;6.60;3.65;;;10.00;99.90;;;;;;2091597;28;20048;-71
2022/09/20 04:38:34;;;;;;;8.70;4.60;;;10.00;99.90;;;;;;2092137;28;20051;-71
2022/09/20 04:40:01;;;;;;;8.07;4.47;;;10.00;99.90;;;;;;2093325;28;20021;-71
2022/09/20 04:41:10;;;;;;;7.15;4.53;;;10.10;99.90;;;;;;2091882;28;20107;-71
2022/09/20 04:42:33;;;;;;;7.25;4.53;;;10.10;99.90;;;;;;2092478;28;20052;-71
2022/09/20 04:43:54;;;;;;;7.47;5.00;;;10.10;99.90;;;;;;2094088;28;20017;-71
2022/09/20 04:45:27;;;;;;;9.40;4.65;;;10.10;99.90;;;;;;2094100;28;20029;-71
2022/09/20 04:46:50;;;;;;;4.95;4.18;;;10.10;99.90;;;;;;2092942;28;20021;-71
2022/09/20 04:48:21;;;;;;;9.00;4.68;;;10.10;99.90;;;;;;2092408;28;20032;-72
2022/09/20 04:49:21;;;;;;;7.93;5.20;;;10.10;99.90;;;;;;2093191;28;20098;-71
2022/09/20 04:50:45;;;;;;;13.13;6.20;;;10.10;99.90;;;;;;2092506;28;20021;-71
2022/09/20 04:51:53;;;;;;;8.55;5.75;;;10.20;99.90;;;;;;2083247;28;20120;-71
2022/09/20 04:53:15;;;;;;;17.00;6.47;;;10.20;99.90;;;;;;2091819;28;20051;-71
2022/09/20 04:54:37;;;;;;;12.43;6.03;;;10.20;99.90;;;;;;2092245;28;20056;-72
2022/09/20 04:55:52;;;;;;;10.52;6.57;;;10.20;99.90;;;;;;2090564;28;20021;-72
2022/09/20 04:57:09;;;;;;;7.38;5.88;;;10.30;99.90;;;;;;2093118;28;20373;-71
2022/09/20 04:58:35;;;;;;;10.45;6.55;;;10.30;99.90;;;;;;2092997;28;20035;-73
2022/09/20 05:00:07;;;;;;;9.90;5.97;;;10.30;99.90;;;;;;2092374;28;20016;-72
2022/09/20 05:01:15;;;;;;;10.98;7.28;;;10.30;99.90;;;;;;2098712;28;20017;-71
2022/09/20 05:02:49;;;;;;;14.80;7.28;;;10.30;99.90;;;;;;2098947;28;20028;-71
2022/09/20 05:04:16;;;;;;;16.50;7.68;;;10.40;99.90;;;;;;2092414;28;20021;-71
2022/09/20 05:05:34;;;;;;;13.50;7.75;;;10.40;99.90;;;;;;2093946;28;20082;-71
2022/09/20 05:06:38;;;;;;;13.68;8.20;;;10.40;99.90;;;;;;2092697;28;20384;-71
2022/09/20 05:07:54;;;;;;;13.32;7.45;;;10.50;99.90;;;;;;2092986;28;20511;-70
2022/09/20 05:09:12;;;;;;;11.02;7.80;;;10.50;99.90;;;;;;2091616;28;20021;-71
2022/09/20 05:10:50;;;;;;;13.52;7.97;;;10.50;99.90;;;;;;2090272;28;20024;-71
2022/09/20 05:12:14;;;;;;;12.07;7.32;;;10.50;99.90;;;;;;2091569;28;20016;-71
2022/09/20 05:13:48;;;;;;;11.27;7.00;;;10.50;99.90;;;;;;2091609;28;20056;-71
2022/09/20 05:15:22;;;;;;;10.50;7.15;;;10.60;99.90;;;;;;2091987;28;20021;-71
2022/09/20 05:16:34;;;;;;;13.75;7.53;;;10.50;99.90;;;;;;2092305;28;20047;-71
2022/09/20 05:17:56;;;;;;;16.13;7.93;;;10.60;99.90;;;;;;2091723;28;20908;-71
2022/09/20 05:19:32;;;;;;;14.10;7.80;;;10.60;99.90;;;;;;2091767;28;20024;-71
2022/09/20 05:20:49;;;;;;;15.75;9.13;;;10.60;99.90;;;;;;2093579;28;20059;-71
2022/09/20 05:22:21;;;;;;;11.45;7.30;;;10.60;99.90;;;;;;2092933;28;20028;-71
2022/09/20 05:23:21;;;;;;;18.50;7.95;;;10.70;99.90;;;;;;2090933;28;20039;-71
2022/09/20 05:25:06;;;;;;;17.42;8.30;;;10.60;99.90;;;;;;2091724;28;20013;-71
2022/09/20 05:26:48;;;;;;;13.18;7.13;;;10.70;99.90;;;;;;2084135;28;20123;-71
2022/09/20 05:28:01;;;;;;;12.45;7.50;;;10.70;99.90;;;;;;2087383;28;20131;-71
2022/09/20 05:29:13;;;;;;;15.35;8.02;;;10.70;99.90;;;;;;2091599;28;20024;-71
2022/09/20 05:30:32;;;;;;;15.40;7.88;;;10.70;99.90;;;;;;2092517;28;20060;-71
2022/09/20 05:31:39;;;;;;;13.90;8.23;;;10.80;99.90;;;;;;2090937;28;20064;-71
2022/09/20 05:32:54;;;;;;;16.48;8.25;;;10.80;99.90;;;;;;2089524;28;20025;-71
2022/09/20 05:34:18;;;;;;;11.55;7.35;;;10.80;99.90;;;;;;2089308;28;20054;-71
2022/09/20 05:35:31;;;;;;;11.23;6.97;;;10.80;99.90;;;;;;2091273;28;20403;-71
2022/09/20 05:36:50;;;;;;;13.40;6.90;;;10.80;99.90;;;;;;2091048;28;20032;-71
2022/09/20 05:38:18;;;;;;;12.40;7.68;;;10.90;99.90;;;;;;2090522;28;20031;-71
2022/09/20 05:39:39;;;;;;;9.00;7.53;;;10.90;99.90;;;;;;2091060;28;20029;-71
2022/09/20 05:40:58;;;;;;;14.20;7.18;;;10.90;99.90;;;;;;2092006;28;20025;-71
2022/09/20 05:42:13;;;;;;;15.75;7.50;;;10.90;99.90;;;;;;2090122;28;20028;-71
2022/09/20 05:43:34;;;;;;;13.15;7.75;;;10.90;99.90;;;;;;2090516;28;20044;-71
2022/09/20 05:45:00;;;;;;;11.75;7.95;;;11.00;99.90;;;;;;2097757;28;20019;-71
2022/09/20 05:46:44;;;;;;;9.38;7.25;;;11.00;99.90;;;;;;2094206;28;20057;-71
2022/09/20 05:48:18;;;;;;;12.23;7.13;;;11.00;99.90;;;;;;2092521;28;20073;-71
2022/09/20 05:49:40;;;;;;;12.48;7.78;;;11.00;99.90;;;;;;2084930;28;20464;-71
2022/09/20 05:51:04;;;;;;;11.50;7.35;;;11.00;99.90;;;;;;2091755;28;20032;-71
2022/09/20 05:52:37;;;;;;;12.13;8.60;;;11.00;99.90;;;;;;2093524;28;20013;-71
2022/09/20 05:54:22;;;;;;;13.10;7.13;;;11.00;99.90;;;;;;2092270;28;20020;-71
2022/09/20 05:56:03;;;;;;;10.38;6.95;;;11.00;99.90;;;;;;2092867;28;20033;-71
2022/09/20 05:57:41;;;;;;;11.25;7.28;;;11.10;99.90;;;;;;2090926;28;20040;-71
2022/09/20 05:59:05;;;;;;;10.35;6.63;;;11.10;99.90;;;;;;2093267;28;20043;-71
2022/09/20 06:00:13;;;;;;;14.65;7.30;;;11.10;99.90;;;;;;2093860;28;20131;-71
2022/09/20 06:01:20;;;;;;;12.13;7.88;;;11.10;99.90;;;;;;2094685;28;20035;-71
2022/09/20 06:02:52;;;;;;;17.67;8.77;;;11.20;99.90;;;;;;2093824;28;20535;-71
2022/09/20 06:04:04;;;;;;;15.63;8.30;;;11.20;99.90;;;;;;2093414;28;20035;-71
2022/09/20 06:05:08;;;;;;;13.45;8.32;;;11.20;99.90;;;;;;2093375;28;20694;-71
2022/09/20 06:06:21;;;;;;;15.57;9.07;;;11.20;99.90;;;;;;2094668;28;20029;-71
2022/09/20 06:07:44;;;;;;;11.95;8.65;;;11.30;99.90;;;;;;2094371;28;20058;-71
2022/09/20 06:09:11;;;;;;;13.27;8.20;;;11.30;99.90;;;;;;2093502;28;20024;-71
2022/09/20 06:10:38;;;;;;;16.85;8.95;;;11.30;99.90;;;;;;2088663;28;20040;-71
2022/09/20 06:11:57;;;;;;;16.50;9.48;;;11.40;99.90;;;;;;2094161;28;20036;-71
2022/09/20 06:13:23;;;;;;;18.83;8.90;;;11.40;99.90;;;;;;2092588;28;20032;-71
2022/09/20 06:14:33;;;;;;;13.93;8.95;;;11.40;99.90;;;;;;2094686;28;20058;-71
2022/09/20 06:15:44;;;;;;;16.70;8.98;;;11.40;99.90;;;;;;2094569;28;20060;-71
2022/09/20 06:17:04;;;;;;;20.25;9.30;;;11.50;99.90;;;;;;2094247;28;20560;-71
2022/09/20 06:18:43;;;;;;;;;;;11.50;99.90;;;;;;2093084;28;20028;-71
2022/09/20 06:19:58;;;;;;;20.60;8.38;;;11.40;99.90;;;;;;2078270;28;20008;-71
2022/09/20 06:21:18;;;;;;;19.48;9.52;;;11.50;99.90;;;;;;2078057;28;20477;-71
2022/09/20 06:22:38;;;;;;;16.75;8.73;;;11.50;99.90;;;;;;2078623;28;20505;-71
2022/09/20 06:23:38;;;;;;;;;;;11.60;99.90;;;;;;2078754;28;20025;-72
2022/09/20 06:25:08;;;;;;;14.38;7.97;;;11.50;99.90;;;;;;2078239;28;20531;-71
2022/09/20 06:26:36;;;;;;;12.27;8.63;;;11.60;99.90;;;;;;2093888;28;20024;-71
2022/09/20 06:27:48;;;;;;;13.50;9.00;;;11.70;99.90;;;;;;2091498;28;20093;-71
2022/09/20 06:28:54;;;;;;;15.75;8.93;;;11.70;99.90;;;;;;2093584;28;20725;-71
2022/09/20 06:30:00;;;;;;;20.42;8.68;;;11.70;99.90;;;;;;2092672;28;20020;-71
2022/09/20 06:31:06;;;;;;;17.25;9.38;;;11.80;99.90;;;;;;2094444;28;20040;-71
2022/09/20 06:32:07;;;;;;;14.73;9.02;;;11.80;99.90;;;;;;2094578;28;20112;-71
2022/09/20 06:33:19;;;;;;;17.77;8.85;;;11.80;99.90;;;;;;2094201;28;20021;-71
2022/09/20 06:34:20;;;;;;;16.42;9.80;;;11.90;99.90;;;;;;2094128;28;20035;-71
2022/09/20 06:35:23;;;;;;;17.40;9.38;;;11.90;99.90;;;;;;2094592;28;20031;-71
2022/09/20 06:42:00;;;;;;;13.85;8.85;;;12.00;99.90;;;;;;2084439;28;20028;-71
2022/09/20 06:43:02;;;;;;;15.45;8.60;;;12.10;99.90;;;;;;2085283;28;20048;-71